createdAt,value
2023-01-17T00:02:01.066Z,82.10
2023-01-17T00:04:47.469Z,81.90
2023-01-17T00:07:34.935Z,82.00
2023-01-17T00:10:07.251Z,81.80
2023-01-17T00:12:34.715Z,81.50
2023-01-17T00:15:02.043Z,81.70
2023-01-17T00:17:29.857Z,81.50
2023-01-17T00:20:15.910Z,81.30
2023-01-17T00:23:02.355Z,81.30
2023-01-17T00:25:51.456Z,81.30
2023-01-17T00:28:18.746Z,81.50
2023-01-17T00:30:46.119Z,81.50
2023-01-17T00:33:13.543Z,81.10
2023-01-17T00:35:40.591Z,81.40
2023-01-17T00:38:12.804Z,81.70
2023-01-17T00:40:41.586Z,81.90
2023-01-17T00:43:28.270Z,82.20
2023-01-17T00:46:14.500Z,82.50
2023-01-17T00:49:00.507Z,82.60
2023-01-17T00:51:47.393Z,82.50
2023-01-17T00:54:33.309Z,82.30
2023-01-17T00:57:19.522Z,82.40
2023-01-17T01:00:04.768Z,82.30
2023-01-17T01:02:50.707Z,82.30
2023-01-17T01:05:36.755Z,82.50
2023-01-17T01:08:22.712Z,82.60
2023-01-17T01:11:08.274Z,82.70
2023-01-17T01:13:53.470Z,82.90
2023-01-17T01:16:39.266Z,83.10
2023-01-17T01:19:24.999Z,83.20
2023-01-17T01:22:10.399Z,83.30
2023-01-17T01:24:55.817Z,83.40
2023-01-17T01:27:41.325Z,83.50
2023-01-17T01:30:27.226Z,83.60
2023-01-17T01:33:12.606Z,83.80
2023-01-17T01:35:39.452Z,83.70
2023-01-17T01:38:06.473Z,83.70
2023-01-17T01:40:33.243Z,83.80
2023-01-17T01:43:03.148Z,84.00
2023-01-17T01:45:32.263Z,84.20
2023-01-17T01:48:05.041Z,84.40
2023-01-17T01:50:33.919Z,84.60
2023-01-17T01:53:03.472Z,84.70
2023-01-17T01:55:37.575Z,84.60
2023-01-17T01:58:18.726Z,84.60
2023-01-17T02:00:45.710Z,84.00
2023-01-17T02:03:27.245Z,84.00
2023-01-17T02:05:54.180Z,84.00
2023-01-17T02:08:23.926Z,84.50
2023-01-17T02:10:51.289Z,84.90
2023-01-17T02:13:20.360Z,85.20
2023-01-17T02:16:12.196Z,85.40
2023-01-17T02:18:59.093Z,85.60
2023-01-17T02:21:28.655Z,85.60
2023-01-17T02:24:01.473Z,85.40
2023-01-17T02:27:07.222Z,85.30
2023-01-17T02:29:36.883Z,85.20
2023-01-17T02:32:07.214Z,85.20
2023-01-17T02:34:52.794Z,85.10
2023-01-17T02:37:43.215Z,84.90
2023-01-17T02:40:24.846Z,84.80
2023-01-17T02:43:02.856Z,84.70
2023-01-17T02:45:29.954Z,84.70
2023-01-17T02:47:56.984Z,84.60
2023-01-17T02:50:43.217Z,84.50
2023-01-17T02:53:31.489Z,84.30
2023-01-17T02:56:11.721Z,84.30
2023-01-17T02:59:09.575Z,84.30
2023-01-17T03:01:39.345Z,84.50
2023-01-17T03:04:21.576Z,84.50
2023-01-17T03:06:56.513Z,84.50
2023-01-17T03:09:25.463Z,84.50
2023-01-17T03:11:52.684Z,84.60
2023-01-17T03:14:19.513Z,84.60
2023-01-17T03:16:47.237Z,84.70
2023-01-17T03:19:14.734Z,84.80
2023-01-17T03:21:41.748Z,84.90
2023-01-17T03:24:08.815Z,84.90
2023-01-17T03:26:35.566Z,84.90
2023-01-17T03:29:02.556Z,84.80
2023-01-17T03:31:29.488Z,84.50
2023-01-17T03:33:56.397Z,84.30
2023-01-17T03:36:23.164Z,84.20
2023-01-17T03:38:50.086Z,84.10
2023-01-17T03:41:17.123Z,84.10
2023-01-17T03:43:44.056Z,84.10
2023-01-17T03:46:23.670Z,84.20
2023-01-17T03:48:50.795Z,84.30
2023-01-17T03:51:18.346Z,84.40
2023-01-17T03:53:47.016Z,84.70
2023-01-17T03:56:14.664Z,85.00
2023-01-17T03:58:41.826Z,85.10
2023-01-17T04:01:08.910Z,84.60
2023-01-17T04:03:35.897Z,84.50
2023-01-17T04:06:02.694Z,84.70
2023-01-17T04:08:30.475Z,84.90
2023-01-17T04:10:57.403Z,84.90
2023-01-17T04:13:24.378Z,84.70
2023-01-17T04:15:51.775Z,84.60
2023-01-17T04:18:20.410Z,84.40
2023-01-17T04:20:47.750Z,84.30
2023-01-17T04:23:14.613Z,84.00
2023-01-17T04:25:41.388Z,83.90
2023-01-17T04:28:08.289Z,83.80
2023-01-17T04:30:35.134Z,83.70
2023-01-17T04:33:02.927Z,83.60
2023-01-17T04:35:31.034Z,83.60
2023-01-17T04:37:57.972Z,83.30
2023-01-17T04:40:25.042Z,83.30
2023-01-17T04:42:52.035Z,83.30
2023-01-17T04:45:18.900Z,83.30
2023-01-17T04:47:45.772Z,83.20
2023-01-17T04:50:12.917Z,83.10
2023-01-17T04:52:39.797Z,83.10
2023-01-17T04:55:07.417Z,83.30
2023-01-17T04:57:34.328Z,83.50
2023-01-17T05:00:01.196Z,83.60
2023-01-17T05:02:28.249Z,83.60
2023-01-17T05:04:55.135Z,83.50
2023-01-17T05:07:21.925Z,83.50
2023-01-17T05:09:48.773Z,83.50
2023-01-17T05:12:15.574Z,83.50
2023-01-17T05:14:42.405Z,83.30
2023-01-17T05:17:11.235Z,83.30
2023-01-17T05:19:38.302Z,83.20
2023-01-17T05:22:14.862Z,83.30
2023-01-17T05:24:43.256Z,83.20
2023-01-17T05:27:11.481Z,83.40
2023-01-17T05:29:38.588Z,83.50
2023-01-17T05:32:06.301Z,83.80
2023-01-17T05:34:33.166Z,83.90
2023-01-17T05:36:59.957Z,84.00
2023-01-17T05:39:27.223Z,84.00
2023-01-17T05:41:53.942Z,84.00
2023-01-17T05:44:20.795Z,83.80
2023-01-17T05:46:47.598Z,83.70
2023-01-17T05:49:14.345Z,83.60
2023-01-17T05:51:41.185Z,83.60
2023-01-17T05:54:07.998Z,83.50
2023-01-17T05:56:35.006Z,83.60
2023-01-17T05:59:01.934Z,83.50
2023-01-17T06:01:28.780Z,83.60
2023-01-17T06:03:55.552Z,83.60
2023-01-17T06:06:22.376Z,83.70
2023-01-17T06:08:49.212Z,83.70
2023-01-17T06:11:16.132Z,83.60
2023-01-17T06:13:42.887Z,83.60
2023-01-17T06:16:09.943Z,83.50
2023-01-17T06:18:36.821Z,83.40
2023-01-17T06:21:03.645Z,83.30
2023-01-17T06:23:30.581Z,83.30
2023-01-17T06:25:57.392Z,83.40
2023-01-17T06:28:24.177Z,83.30
2023-01-17T06:30:51.050Z,83.20
2023-01-17T06:33:17.922Z,83.20
2023-01-17T06:35:52.189Z,83.00
2023-01-17T06:38:19.674Z,83.10
2023-01-17T06:40:46.515Z,83.20
2023-01-17T06:43:13.292Z,83.00
2023-01-17T06:45:40.130Z,82.80
2023-01-17T06:48:07.019Z,82.90
2023-01-17T06:50:34.938Z,82.90
2023-01-17T06:53:04.511Z,82.90
2023-01-17T06:55:33.736Z,82.80
2023-01-17T06:58:02.537Z,82.70
2023-01-17T07:00:31.311Z,82.70
2023-01-17T07:02:58.272Z,82.70
2023-01-17T07:05:25.256Z,82.70
2023-01-17T07:07:53.110Z,82.80
2023-01-17T07:10:20.225Z,82.70
2023-01-17T07:12:46.971Z,82.60
2023-01-17T07:15:14.030Z,82.40
2023-01-17T07:17:40.911Z,82.40
2023-01-17T07:20:08.651Z,82.20
2023-01-17T07:22:37.506Z,82.10
2023-01-17T07:25:04.735Z,82.00
2023-01-17T07:27:33.765Z,82.00
2023-01-17T07:30:00.918Z,81.80
2023-01-17T07:32:28.745Z,81.90
2023-01-17T07:34:57.564Z,81.80
2023-01-17T07:37:26.341Z,81.70
2023-01-17T07:39:54.572Z,81.80
2023-01-17T07:42:23.969Z,81.60
2023-01-17T07:44:51.067Z,81.70
2023-01-17T07:47:17.972Z,81.50
2023-01-17T07:49:44.827Z,81.60
2023-01-17T07:52:12.027Z,81.40
2023-01-17T07:54:38.942Z,81.40
2023-01-17T07:57:06.010Z,81.30
2023-01-17T07:59:34.537Z,81.50
2023-01-17T08:02:01.495Z,81.40
2023-01-17T08:04:34.608Z,81.20
2023-01-17T08:07:02.120Z,81.40
2023-01-17T08:09:29.023Z,81.40
2023-01-17T08:11:55.898Z,81.00
2023-01-17T08:14:22.861Z,81.10
2023-01-17T08:16:49.699Z,80.90
2023-01-17T08:19:17.182Z,80.90
2023-01-17T08:21:44.095Z,80.50
2023-01-17T08:24:15.006Z,80.10
2023-01-17T08:26:41.973Z,80.40
2023-01-17T08:29:09.388Z,80.30
2023-01-17T08:31:36.723Z,80.20
2023-01-17T08:34:03.768Z,80.20
2023-01-17T08:36:31.323Z,80.60
2023-01-17T08:38:58.558Z,80.70
2023-01-17T08:41:27.739Z,80.40
2023-01-17T08:43:54.674Z,80.40
2023-01-17T08:46:21.677Z,80.20
2023-01-17T08:48:52.509Z,80.10
2023-01-17T08:51:20.527Z,80.00
2023-01-17T08:53:48.503Z,80.20
2023-01-17T08:56:15.405Z,81.00
2023-01-17T08:58:42.408Z,81.30
2023-01-17T09:01:09.639Z,81.20
2023-01-17T09:03:38.854Z,81.20
2023-01-17T09:06:08.207Z,80.80
2023-01-17T09:08:35.646Z,80.60
2023-01-17T09:11:07.364Z,80.80
2023-01-17T09:13:34.462Z,80.70
2023-01-17T09:16:01.719Z,80.20
2023-01-17T09:18:29.478Z,80.00
2023-01-17T09:20:59.219Z,80.30
2023-01-17T09:23:27.860Z,81.00
2023-01-17T09:25:59.200Z,81.60
2023-01-17T09:28:27.372Z,84.80
2023-01-17T09:30:54.531Z,84.30
2023-01-17T09:33:23.249Z,82.60
2023-01-17T09:35:50.393Z,81.20
2023-01-17T09:38:17.831Z,80.60
2023-01-17T09:40:49.001Z,80.90
2023-01-17T09:43:47.833Z,80.40
2023-01-17T09:46:23.871Z,81.00
2023-01-17T09:49:00.841Z,80.80
2023-01-17T09:51:27.850Z,79.90
2023-01-17T09:53:55.390Z,79.60
2023-01-17T09:56:31.709Z,79.70
2023-01-17T09:59:32.737Z,79.60
2023-01-17T10:02:26.732Z,79.20
2023-01-17T10:05:18.578Z,78.30
2023-01-17T10:08:16.671Z,79.10
2023-01-17T10:10:55.921Z,79.70
2023-01-17T10:13:56.613Z,79.90
2023-01-17T10:16:55.033Z,80.90
2023-01-17T10:19:52.806Z,81.80
2023-01-17T10:22:36.936Z,81.50
2023-01-17T10:25:33.168Z,81.40
2023-01-17T10:28:06.220Z,81.10
2023-01-17T10:30:38.691Z,81.40
2023-01-17T10:33:18.703Z,81.80
2023-01-17T10:35:54.853Z,82.90
2023-01-17T10:38:31.019Z,81.00
2023-01-17T10:41:04.015Z,81.10
2023-01-17T10:43:44.450Z,80.70
2023-01-17T10:46:30.319Z,80.90
2023-01-17T10:48:57.937Z,80.60
2023-01-17T10:51:42.914Z,79.30
2023-01-17T10:54:42.905Z,81.50
2023-01-17T10:57:17.549Z,81.50
2023-01-17T10:59:44.623Z,80.80
2023-01-17T11:02:19.874Z,78.90
2023-01-17T11:04:51.079Z,78.50
2023-01-17T11:07:22.176Z,83.50
2023-01-17T11:09:51.584Z,82.60
2023-01-17T11:12:38.173Z,77.10
2023-01-17T11:15:11.018Z,73.90
2023-01-17T11:17:43.993Z,72.70
2023-01-17T11:20:29.797Z,71.80
2023-01-17T11:23:12.544Z,71.30
2023-01-17T11:25:39.550Z,74.90
2023-01-17T11:28:17.907Z,74.80
2023-01-17T11:31:03.642Z,72.70
2023-01-17T11:33:57.045Z,70.80
2023-01-17T11:36:30.969Z,70.10
2023-01-17T11:39:30.806Z,70.10
2023-01-17T11:41:59.321Z,73.10
2023-01-17T11:44:26.249Z,74.80
2023-01-17T11:47:11.820Z,75.10
2023-01-17T11:49:49.064Z,78.60
2023-01-17T11:52:18.623Z,80.90
2023-01-17T11:54:50.171Z,82.60
2023-01-17T11:57:28.285Z,84.10
2023-01-17T12:00:08.529Z,80.90
2023-01-17T12:03:10.680Z,76.40
2023-01-17T12:06:01.705Z,73.10
2023-01-17T12:08:56.821Z,71.60
2023-01-17T12:11:36.077Z,68.90
2023-01-17T12:14:29.610Z,68.60
2023-01-17T12:17:11.672Z,67.70
2023-01-17T12:20:04.980Z,64.10
2023-01-17T12:22:56.703Z,63.90
2023-01-17T12:25:23.886Z,66.80
2023-01-17T12:27:51.176Z,66.30
2023-01-17T12:30:33.034Z,66.70
2023-01-17T12:33:12.075Z,63.20
2023-01-17T12:35:56.776Z,60.40
2023-01-17T12:38:33.475Z,58.70
2023-01-17T12:41:14.368Z,58.10
2023-01-17T12:43:41.663Z,58.60
2023-01-17T12:46:31.035Z,60.00
2023-01-17T12:49:30.367Z,56.30
2023-01-17T12:52:06.622Z,53.20
2023-01-17T12:54:41.641Z,54.10
2023-01-17T12:57:29.568Z,52.80
2023-01-17T13:00:06.919Z,53.30
2023-01-17T13:02:55.417Z,56.30
2023-01-17T13:05:29.726Z,57.90
2023-01-17T13:08:19.792Z,58.00
2023-01-17T13:11:18.437Z,56.90
2023-01-17T13:13:45.837Z,54.20
2023-01-17T13:16:37.634Z,57.30
2023-01-17T13:19:14.535Z,56.50
2023-01-17T13:21:41.717Z,55.10
2023-01-17T13:24:22.751Z,53.90
2023-01-17T13:27:36.958Z,53.70
2023-01-17T13:30:12.226Z,53.40
2023-01-17T13:33:01.614Z,52.80
2023-01-17T13:36:07.136Z,54.10
2023-01-17T13:39:15.139Z,52.50
2023-01-17T13:41:52.359Z,54.10
2023-01-17T13:44:22.954Z,54.50
2023-01-17T13:46:56.636Z,54.10
2023-01-17T13:49:29.365Z,52.70
2023-01-17T13:52:12.136Z,52.50
2023-01-17T13:55:00.974Z,51.90
2023-01-17T13:57:32.918Z,52.50
2023-01-17T14:00:36.293Z,52.00
2023-01-17T14:03:03.287Z,52.70
2023-01-17T14:05:30.262Z,52.30
2023-01-17T14:08:00.871Z,51.20
2023-01-17T14:10:41.591Z,52.10
2023-01-17T14:13:43.994Z,51.30
2023-01-17T14:16:25.619Z,50.20
2023-01-17T14:18:53.891Z,50.00
2023-01-17T14:21:24.740Z,47.90
2023-01-17T14:24:04.082Z,50.50
2023-01-17T14:26:39.122Z,51.30
2023-01-17T14:29:45.294Z,51.60
2023-01-17T14:32:17.801Z,53.50
2023-01-17T14:34:47.620Z,53.10
2023-01-17T14:37:29.573Z,51.50
2023-01-17T14:39:56.652Z,50.60
2023-01-17T14:42:26.540Z,51.90
2023-01-17T14:45:09.771Z,51.20
2023-01-17T14:47:39.507Z,51.00
2023-01-17T14:50:21.856Z,50.40
2023-01-17T14:53:05.515Z,51.00
2023-01-17T14:55:32.421Z,51.10
2023-01-17T14:57:59.286Z,51.80
2023-01-17T15:00:29.326Z,51.60
2023-01-17T15:02:59.284Z,52.80
2023-01-17T15:05:28.057Z,53.20
2023-01-17T15:07:57.370Z,53.40
2023-01-17T15:10:30.296Z,53.70
2023-01-17T15:13:05.456Z,54.20
2023-01-17T15:15:35.203Z,54.50
2023-01-17T15:18:13.406Z,54.90
2023-01-17T15:20:48.838Z,54.80
2023-01-17T15:23:23.481Z,54.80
2023-01-17T15:25:52.412Z,55.70
2023-01-17T15:28:19.559Z,56.20
2023-01-17T15:31:03.597Z,56.60
2023-01-17T15:33:32.610Z,56.90
2023-01-17T15:36:25.683Z,57.00
2023-01-17T15:39:00.194Z,57.10
2023-01-17T15:41:32.088Z,56.50
2023-01-17T15:43:59.272Z,56.00
2023-01-17T15:46:32.375Z,56.10
2023-01-17T15:49:17.885Z,56.80
2023-01-17T15:52:18.389Z,57.70
2023-01-17T15:54:55.899Z,58.30
2023-01-17T15:57:29.024Z,58.70
2023-01-17T16:00:20.360Z,59.10
2023-01-17T16:02:55.212Z,59.60
2023-01-17T16:05:22.799Z,59.70
2023-01-17T16:07:51.805Z,59.90
2023-01-17T16:10:20.988Z,60.30
2023-01-17T16:12:53.602Z,60.60
2023-01-17T16:15:22.012Z,60.80
2023-01-17T16:17:52.449Z,60.90
2023-01-17T16:20:34.091Z,61.30
2023-01-17T16:23:01.868Z,61.70
2023-01-17T16:25:32.436Z,61.80
2023-01-17T16:27:59.769Z,62.00
2023-01-17T16:30:27.481Z,62.00
2023-01-17T16:32:56.541Z,62.20
2023-01-17T16:35:27.736Z,62.40
2023-01-17T16:37:56.801Z,62.70
2023-01-17T16:40:29.965Z,63.10
2023-01-17T16:42:58.058Z,63.30
2023-01-17T16:45:25.041Z,63.40
2023-01-17T16:47:54.803Z,63.50
2023-01-17T16:50:25.373Z,63.70
2023-01-17T16:52:54.234Z,63.80
2023-01-17T16:55:24.313Z,64.00
2023-01-17T16:57:54.129Z,64.10
2023-01-17T17:00:22.652Z,64.30
2023-01-17T17:02:50.931Z,64.40
2023-01-17T17:05:18.021Z,64.60
2023-01-17T17:07:50.771Z,64.60
2023-01-17T17:10:20.505Z,64.80
2023-01-17T17:12:47.415Z,64.80
2023-01-17T17:15:14.761Z,65.00
2023-01-17T17:17:43.324Z,65.20
2023-01-17T17:20:13.880Z,65.50
2023-01-17T17:22:44.065Z,65.60
2023-01-17T17:25:12.122Z,65.80
2023-01-17T17:27:38.948Z,65.90
2023-01-17T17:30:06.602Z,65.90
2023-01-17T17:32:33.521Z,66.00
2023-01-17T17:35:00.514Z,66.00
2023-01-17T17:37:30.772Z,65.90
2023-01-17T17:39:58.027Z,65.90
2023-01-17T17:42:25.610Z,66.00
2023-01-17T17:44:52.780Z,66.10
2023-01-17T17:47:19.673Z,66.20
2023-01-17T17:49:46.446Z,66.20
2023-01-17T17:52:13.347Z,66.30
2023-01-17T17:54:40.556Z,66.40
2023-01-17T17:57:07.608Z,66.60
2023-01-17T17:59:34.533Z,66.60
2023-01-17T18:02:01.528Z,66.80
2023-01-17T18:04:28.472Z,66.80
2023-01-17T18:06:57.257Z,67.00
2023-01-17T18:09:24.618Z,67.20
2023-01-17T18:11:51.526Z,67.30
2023-01-17T18:14:21.101Z,67.30
2023-01-17T18:16:48.159Z,67.40
2023-01-17T18:19:21.788Z,67.40
2023-01-17T18:21:50.392Z,67.50
2023-01-17T18:24:19.892Z,67.50
2023-01-17T18:26:55.958Z,67.50
2023-01-17T18:29:24.408Z,67.50
2023-01-17T18:31:52.294Z,67.50
2023-01-17T18:34:24.188Z,67.50
2023-01-17T18:36:51.884Z,67.70
2023-01-17T18:39:20.289Z,67.70
2023-01-17T18:41:49.061Z,67.60
2023-01-17T18:44:16.831Z,67.70
2023-01-17T18:46:43.842Z,67.90
2023-01-17T18:49:12.425Z,68.10
2023-01-17T18:51:39.354Z,68.30
2023-01-17T18:54:08.724Z,68.30
2023-01-17T18:56:35.935Z,68.00
2023-01-17T18:59:05.932Z,68.00
2023-01-17T19:01:35.948Z,67.90
2023-01-17T19:04:05.181Z,67.80
2023-01-17T19:06:36.790Z,68.10
2023-01-17T19:09:04.675Z,68.10
2023-01-17T19:11:31.518Z,68.20
2023-01-17T19:13:58.540Z,68.30
2023-01-17T19:16:31.023Z,68.30
2023-01-17T19:19:01.927Z,68.50
2023-01-17T19:21:29.300Z,68.70
2023-01-17T19:23:57.320Z,68.80
2023-01-17T19:26:27.123Z,68.90
2023-01-17T19:28:58.980Z,69.00
2023-01-17T19:31:30.721Z,69.20
2023-01-17T19:33:59.305Z,69.40
2023-01-17T19:36:33.472Z,69.50
2023-01-17T19:39:05.581Z,69.60
2023-01-17T19:41:35.654Z,69.60
2023-01-17T19:44:08.617Z,69.70
2023-01-17T19:46:36.798Z,69.70
2023-01-17T19:49:06.119Z,69.70
2023-01-17T19:51:37.969Z,69.70
2023-01-17T19:54:09.562Z,69.80
2023-01-17T19:56:37.393Z,69.90
2023-01-17T19:59:04.425Z,69.90
2023-01-17T20:01:32.993Z,70.00
2023-01-17T20:04:01.463Z,70.10
2023-01-17T20:06:31.083Z,70.10
2023-01-17T20:08:58.164Z,70.20
2023-01-17T20:11:26.590Z,70.10
2023-01-17T20:13:55.966Z,70.20
2023-01-17T20:16:24.642Z,70.20
2023-01-17T20:18:52.321Z,70.10
2023-01-17T20:21:27.857Z,70.20
2023-01-17T20:23:57.143Z,70.30
2023-01-17T20:26:31.057Z,70.20
2023-01-17T20:28:57.959Z,70.30
2023-01-17T20:31:26.664Z,70.30
2023-01-17T20:33:55.507Z,70.50
2023-01-17T20:36:24.914Z,70.50
2023-01-17T20:38:53.136Z,70.70
2023-01-17T20:41:29.892Z,70.70
2023-01-17T20:44:00.553Z,70.80
2023-01-17T20:46:35.417Z,70.70
2023-01-17T20:49:05.455Z,70.80
2023-01-17T20:51:38.326Z,70.80
2023-01-17T20:54:06.485Z,70.90
2023-01-17T20:56:37.748Z,71.00
2023-01-17T20:59:32.246Z,71.00
2023-01-17T21:01:59.679Z,71.10
2023-01-17T21:04:26.767Z,71.00
2023-01-17T21:06:54.665Z,71.10
2023-01-17T21:09:22.010Z,71.10
2023-01-17T21:11:49.320Z,71.20
2023-01-17T21:14:16.320Z,71.20
2023-01-17T21:16:43.325Z,71.20
2023-01-17T21:19:13.311Z,71.40
2023-01-17T21:21:40.450Z,71.40
2023-01-17T21:24:07.587Z,71.40
2023-01-17T21:26:34.839Z,71.50
2023-01-17T21:29:02.019Z,71.50
2023-01-17T21:31:34.453Z,71.50
2023-01-17T21:34:08.064Z,71.60
2023-01-17T21:36:37.964Z,71.60
2023-01-17T21:39:16.345Z,71.60
2023-01-17T21:41:45.758Z,71.70
2023-01-17T21:44:20.903Z,71.70
2023-01-17T21:46:48.472Z,71.80
2023-01-17T21:49:15.585Z,71.90
2023-01-17T21:51:55.240Z,71.90
2023-01-17T21:54:44.782Z,72.00
2023-01-17T21:57:31.882Z,72.00
2023-01-17T21:59:58.979Z,72.10
2023-01-17T22:02:25.957Z,72.10
2023-01-17T22:04:54.714Z,72.20
2023-01-17T22:07:22.030Z,72.20
2023-01-17T22:09:49.655Z,72.20
2023-01-17T22:12:16.491Z,72.20
2023-01-17T22:14:43.357Z,72.20
2023-01-17T22:17:10.422Z,72.30
2023-01-17T22:19:37.326Z,72.40
2023-01-17T22:22:04.293Z,72.40
2023-01-17T22:24:31.246Z,72.30
2023-01-17T22:26:58.208Z,72.30
2023-01-17T22:29:25.108Z,72.30
2023-01-17T22:31:52.013Z,72.30
2023-01-17T22:34:19.062Z,72.40
2023-01-17T22:36:45.999Z,72.40
2023-01-17T22:39:12.905Z,72.40
2023-01-17T22:41:39.678Z,72.40
2023-01-17T22:44:07.518Z,72.40
2023-01-17T22:46:37.207Z,72.50
2023-01-17T22:49:05.959Z,72.50
2023-01-17T22:51:32.970Z,72.40
2023-01-17T22:54:01.132Z,72.40
2023-01-17T22:56:33.296Z,72.40
2023-01-17T22:59:01.028Z,72.40
2023-01-17T23:01:30.246Z,72.50
2023-01-17T23:03:59.387Z,72.50
2023-01-17T23:06:33.645Z,72.50
2023-01-17T23:09:03.828Z,72.50
2023-01-17T23:11:39.216Z,72.50
2023-01-17T23:14:11.356Z,72.60
2023-01-17T23:17:18.237Z,72.60
2023-01-17T23:19:54.458Z,72.60
2023-01-17T23:22:27.181Z,72.70
2023-01-17T23:25:10.999Z,72.70
2023-01-17T23:28:01.855Z,72.70
2023-01-17T23:30:34.454Z,72.70
2023-01-17T23:33:10.219Z,72.80
2023-01-17T23:35:42.117Z,72.90
2023-01-17T23:38:26.270Z,72.80
2023-01-17T23:41:35.534Z,72.80
2023-01-17T23:44:03.748Z,72.80
2023-01-17T23:46:30.877Z,72.80
2023-01-17T23:48:57.753Z,72.80
2023-01-17T23:51:24.542Z,73.00
2023-01-17T23:53:57.152Z,73.10
2023-01-17T23:56:24.766Z,73.00
2023-01-17T23:58:51.636Z,73.00
